Terminal Aerodrome Forecast
Issued by NWS

Home | Current Version | Previous Version | Graphics & Text | Print | Product List | Glossary On
Versions: 1 2 3 4 5 6 7 8 9 10 11 12 13 14 15 16 17 18 19 20 21
293
FTUS43 KABR 241138
TAFATY
TAF
KATY 241138Z 2412/2512 15008KT P6SM BKN200 WS020/19040KT
     FM241500 17015G23KT P6SM BKN200
     FM241800 20016G24KT P6SM VCSH BKN090 OVC150
     FM242300 27010KT P6SM BKN080
     FM250000 30010KT P6SM FEW020 BKN080
     FM250600 34012KT P6SM BKN020
     FM250900 35010KT P6SM BKN008=

USA.gov is the U.S. government's official web portal to all federal, state and local government web resources and services.